createdAt,value
2023-10-26T00:00:12.452Z,97656.69
2023-10-26T00:02:39.513Z,97658.84
2023-10-26T00:05:07.058Z,97657.72
2023-10-26T00:07:34.163Z,97657.69
2023-10-26T00:10:01.053Z,97652.00
2023-10-26T00:12:28.177Z,97654.44
2023-10-26T00:14:55.211Z,97653.88
2023-10-26T00:17:23.523Z,97651.19
2023-10-26T00:19:50.414Z,97657.94
2023-10-26T00:22:17.330Z,97653.06
2023-10-26T00:24:44.619Z,97655.50
2023-10-26T00:27:11.792Z,97660.09
2023-10-26T00:29:38.960Z,97666.00
2023-10-26T00:32:06.675Z,97668.66
2023-10-26T00:34:37.395Z,97664.66
2023-10-26T00:37:04.570Z,97658.19
2023-10-26T00:39:31.527Z,97660.63
2023-10-26T00:41:58.420Z,97660.34
2023-10-26T00:44:26.018Z,97666.81
2023-10-26T00:46:55.532Z,97672.22
2023-10-26T00:49:22.720Z,97672.78
2023-10-26T00:52:03.933Z,97672.81
2023-10-26T00:54:33.364Z,97674.97
2023-10-26T00:57:01.205Z,97664.00
2023-10-26T00:59:29.251Z,97669.38
2023-10-26T01:01:57.528Z,97675.03
2023-10-26T01:04:24.788Z,97672.03
2023-10-26T01:06:51.705Z,97696.53
2023-10-26T01:09:18.796Z,97692.47
2023-10-26T01:11:45.776Z,97699.38
2023-10-26T01:14:12.873Z,97689.38
2023-10-26T01:16:40.910Z,97698.47
2023-10-26T01:19:10.104Z,97699.41
2023-10-26T01:21:53.585Z,97696.97
2023-10-26T01:24:21.579Z,97708.88
2023-10-26T01:26:48.821Z,97706.44
2023-10-26T01:29:15.949Z,97702.19
2023-10-26T01:31:42.905Z,97694.56
2023-10-26T01:34:09.883Z,97699.94
2023-10-26T01:36:36.857Z,97695.09
2023-10-26T01:39:04.171Z,97708.19
2023-10-26T01:41:34.533Z,97694.44
2023-10-26T01:44:02.194Z,97698.13
2023-10-26T01:46:29.221Z,97691.69
2023-10-26T01:48:56.384Z,97691.44
2023-10-26T01:51:23.291Z,97695.44
2023-10-26T01:53:50.204Z,97687.38
2023-10-26T01:56:17.443Z,97689.25
2023-10-26T01:58:44.365Z,97691.94
2023-10-26T02:01:11.332Z,97697.31
2023-10-26T02:03:38.392Z,97694.88
2023-10-26T02:06:05.948Z,97690.00
2023-10-26T02:08:33.076Z,97702.41
2023-10-26T02:11:00.044Z,97702.19
2023-10-26T02:13:27.056Z,97691.38
2023-10-26T02:15:54.101Z,97704.03
2023-10-26T02:18:21.167Z,97690.00
2023-10-26T02:20:48.150Z,97687.31
2023-10-26T02:23:15.530Z,97694.31
2023-10-26T02:25:42.407Z,97701.59
2023-10-26T02:28:09.304Z,97693.81
2023-10-26T02:30:36.180Z,97713.72
2023-10-26T02:33:03.588Z,97700.56
2023-10-26T02:35:30.542Z,97707.84
2023-10-26T02:37:57.440Z,97705.13
2023-10-26T02:40:24.334Z,97713.50
2023-10-26T02:42:51.426Z,97703.31
2023-10-26T02:45:18.303Z,97714.88
2023-10-26T02:47:46.352Z,97721.91
2023-10-26T02:50:13.583Z,97715.69
2023-10-26T02:52:41.176Z,97723.00
2023-10-26T02:55:08.999Z,97725.66
2023-10-26T02:57:36.009Z,97718.09
2023-10-26T03:00:04.385Z,97719.16
2023-10-26T03:02:31.588Z,97720.16
2023-10-26T03:04:58.657Z,97721.28
2023-10-26T03:07:26.063Z,97732.34
2023-10-26T03:09:53.208Z,97722.41
2023-10-26T03:12:21.383Z,97721.84
2023-10-26T03:14:48.212Z,97722.28
2023-10-26T03:17:17.207Z,97729.81
2023-10-26T03:19:44.435Z,97732.53
2023-10-26T03:22:12.123Z,97728.78
2023-10-26T03:24:39.172Z,97732.28
2023-10-26T03:27:06.328Z,97733.66
2023-10-26T03:29:33.267Z,97735.28
2023-10-26T03:32:00.168Z,97734.72
2023-10-26T03:34:27.051Z,97743.34
2023-10-26T03:36:53.945Z,97734.16
2023-10-26T03:39:21.127Z,97740.06
2023-10-26T03:41:48.066Z,97744.41
2023-10-26T03:44:15.201Z,97743.03
2023-10-26T03:46:42.122Z,97744.88
2023-10-26T03:49:09.010Z,97738.97
2023-10-26T03:51:35.803Z,97736.22
2023-10-26T03:54:02.918Z,97733.47
2023-10-26T03:56:29.780Z,97746.34
2023-10-26T03:58:56.618Z,97743.34
2023-10-26T04:01:23.695Z,97742.28
2023-10-26T04:03:50.657Z,97737.91
2023-10-26T04:06:17.571Z,97734.53
2023-10-26T04:08:44.544Z,97736.28
2023-10-26T04:11:17.881Z,97736.53
2023-10-26T04:13:45.560Z,97724.13
2023-10-26T04:16:12.898Z,97733.63
2023-10-26T04:18:40.652Z,97737.38
2023-10-26T04:21:07.654Z,97737.88
2023-10-26T04:23:34.723Z,97740.50
2023-10-26T04:26:01.567Z,97743.75
2023-10-26T04:28:28.433Z,97738.25
2023-10-26T04:30:55.533Z,97729.81
2023-10-26T04:33:22.407Z,97731.81
2023-10-26T04:35:50.668Z,97737.56
2023-10-26T04:38:17.698Z,97729.72
2023-10-26T04:40:45.434Z,97725.06
2023-10-26T04:43:12.394Z,97726.31
2023-10-26T04:45:41.325Z,97726.47
2023-10-26T04:48:08.310Z,97734.59
2023-10-26T04:50:35.334Z,97735.00
2023-10-26T04:53:03.994Z,97746.69
2023-10-26T04:55:37.212Z,97738.06
2023-10-26T04:58:04.563Z,97729.50
2023-10-26T05:00:32.104Z,97732.19
2023-10-26T05:02:59.675Z,97724.00
2023-10-26T05:05:27.093Z,97728.84
2023-10-26T05:07:54.300Z,97726.63
2023-10-26T05:10:21.757Z,97729.28
2023-10-26T05:12:49.092Z,97728.97
2023-10-26T05:15:16.072Z,97725.34
2023-10-26T05:17:44.688Z,97731.84
2023-10-26T05:20:13.468Z,97729.72
2023-10-26T05:22:41.507Z,97737.22
2023-10-26T05:25:12.324Z,97735.03
2023-10-26T05:27:39.962Z,97733.97
2023-10-26T05:30:07.683Z,97744.47
2023-10-26T05:32:35.309Z,97751.22
2023-10-26T05:35:02.259Z,97743.56
2023-10-26T05:37:29.259Z,97738.69
2023-10-26T05:39:56.349Z,97746.13
2023-10-26T05:42:23.322Z,97743.34
2023-10-26T05:44:50.332Z,97739.69
2023-10-26T05:47:20.158Z,97739.06
2023-10-26T05:49:48.264Z,97744.19
2023-10-26T05:52:15.406Z,97740.03
2023-10-26T05:54:43.087Z,97752.06
2023-10-26T05:57:11.395Z,97757.19
2023-10-26T05:59:38.327Z,97755.34
2023-10-26T06:02:05.400Z,97759.06
2023-10-26T06:04:32.852Z,97758.50
2023-10-26T06:07:02.690Z,97765.84
2023-10-26T06:09:29.662Z,97770.78
2023-10-26T06:11:56.544Z,97771.19
2023-10-26T06:14:24.053Z,97773.28
2023-10-26T06:16:55.796Z,97780.06
2023-10-26T06:19:22.768Z,97785.09
2023-10-26T06:21:49.575Z,97781.00
2023-10-26T06:24:16.727Z,97772.84
2023-10-26T06:26:43.610Z,97780.19
2023-10-26T06:29:10.547Z,97785.91
2023-10-26T06:31:37.847Z,97786.16
2023-10-26T06:34:04.795Z,97780.81
2023-10-26T06:36:31.826Z,97784.63
2023-10-26T06:39:00.998Z,97776.00
2023-10-26T06:41:27.993Z,97770.56
2023-10-26T06:43:55.313Z,97785.00
2023-10-26T06:46:22.378Z,97785.56
2023-10-26T06:48:49.889Z,97784.28
2023-10-26T06:51:16.923Z,97784.59
2023-10-26T06:53:43.904Z,97793.78
2023-10-26T06:56:14.260Z,97789.97
2023-10-26T06:58:43.616Z,97794.19
2023-10-26T07:01:20.768Z,97794.69
2023-10-26T07:03:50.651Z,97794.59
2023-10-26T07:06:17.937Z,97793.31
2023-10-26T07:08:45.321Z,97799.25
2023-10-26T07:11:12.624Z,97793.53
2023-10-26T07:13:39.778Z,97796.28
2023-10-26T07:16:07.175Z,97799.06
2023-10-26T07:18:35.287Z,97795.41
2023-10-26T07:21:08.893Z,97803.94
2023-10-26T07:23:38.360Z,97800.28
2023-10-26T07:26:05.664Z,97803.44
2023-10-26T07:28:32.466Z,97794.47
2023-10-26T07:30:59.835Z,97791.28
2023-10-26T07:33:26.796Z,97793.97
2023-10-26T07:35:56.704Z,97797.63
2023-10-26T07:38:36.854Z,97791.50
2023-10-26T07:41:07.033Z,97787.19
2023-10-26T07:43:35.784Z,97795.38
2023-10-26T07:46:03.658Z,97794.50
2023-10-26T07:48:32.693Z,97802.34
2023-10-26T07:50:59.696Z,97806.56
2023-10-26T07:53:26.800Z,97793.28
2023-10-26T07:55:58.102Z,97790.09
2023-10-26T07:58:28.002Z,97787.00
2023-10-26T08:00:55.114Z,97793.69
2023-10-26T08:03:22.636Z,97794.09
2023-10-26T08:06:02.439Z,97780.97
2023-10-26T08:08:29.305Z,97781.41
2023-10-26T08:11:12.439Z,97777.13
2023-10-26T08:13:39.335Z,97776.53
2023-10-26T08:16:36.599Z,97775.47
2023-10-26T08:18:54.032Z,97773.78
2023-10-26T08:21:21.475Z,97782.03
2023-10-26T08:23:48.399Z,97776.44
2023-10-26T08:26:16.478Z,97784.22
2023-10-26T08:28:43.493Z,97780.25
2023-10-26T08:31:10.410Z,97776.81
2023-10-26T08:33:38.256Z,97769.31
2023-10-26T08:36:05.876Z,97761.81
2023-10-26T08:38:34.266Z,97754.53
2023-10-26T08:41:01.539Z,97757.41
2023-10-26T08:43:29.776Z,97759.72
2023-10-26T08:46:02.600Z,97768.34
2023-10-26T08:48:36.878Z,97756.75
2023-10-26T08:51:04.596Z,97760.84
2023-10-26T08:53:31.794Z,97768.28
2023-10-26T08:55:59.612Z,97769.94
2023-10-26T08:58:26.736Z,97770.50
2023-10-26T09:00:53.958Z,97765.19
2023-10-26T09:03:23.895Z,97765.72
2023-10-26T09:05:56.603Z,97769.22
2023-10-26T09:08:24.907Z,97761.31
2023-10-26T09:10:55.112Z,97761.84
2023-10-26T09:13:30.311Z,97766.16
2023-10-26T09:16:00.095Z,97763.03
2023-10-26T09:18:28.056Z,97775.16
2023-10-26T09:21:08.306Z,97782.19
2023-10-26T09:23:37.144Z,97783.50
2023-10-26T09:26:06.080Z,97783.50
2023-10-26T09:28:52.087Z,97793.47
2023-10-26T09:31:19.320Z,97803.97
2023-10-26T09:33:49.886Z,97806.22
2023-10-26T09:36:24.368Z,97795.75
2023-10-26T09:38:51.567Z,97782.81
2023-10-26T09:44:07.101Z,97783.94
2023-10-26T09:46:34.315Z,97793.22
2023-10-26T09:49:01.392Z,97807.88
2023-10-26T09:51:28.494Z,97810.00
2023-10-26T09:53:56.246Z,97812.41
2023-10-26T09:56:27.383Z,97819.47
2023-10-26T09:58:54.759Z,97821.34
2023-10-26T10:01:33.071Z,97822.44
2023-10-26T10:04:00.771Z,97818.09
2023-10-26T10:07:00.217Z,97812.69
2023-10-26T10:09:28.750Z,97808.84
2023-10-26T10:12:12.948Z,97800.75
2023-10-26T10:14:48.629Z,97810.81
2023-10-26T10:17:20.279Z,97815.66
2023-10-26T10:19:48.950Z,97810.81
2023-10-26T10:22:40.681Z,97810.53
2023-10-26T10:25:11.998Z,97811.06
2023-10-26T10:27:39.839Z,97823.47
2023-10-26T10:30:10.351Z,97822.09
2023-10-26T10:32:46.421Z,97829.97
2023-10-26T10:35:23.581Z,97832.31
2023-10-26T10:38:15.645Z,97821.84
2023-10-26T10:41:10.117Z,97821.59
2023-10-26T10:43:46.828Z,97819.16
2023-10-26T10:46:21.883Z,97812.69
2023-10-26T10:49:08.379Z,97810.56
2023-10-26T10:51:43.141Z,97812.69
2023-10-26T10:54:40.296Z,97803.28
2023-10-26T10:57:08.529Z,97794.88
2023-10-26T10:59:35.400Z,97801.91
2023-10-26T11:02:15.728Z,97793.25
2023-10-26T11:07:30.569Z,97771.66
2023-10-26T11:09:58.776Z,97782.75
2023-10-26T11:12:25.930Z,97777.06
2023-10-26T11:14:54.511Z,97786.78
2023-10-26T11:17:23.590Z,97775.72
2023-10-26T11:19:51.296Z,97770.03
2023-10-26T11:22:20.058Z,97760.84
2023-10-26T11:24:47.577Z,97767.59
2023-10-26T11:27:16.017Z,97759.22
2023-10-26T11:29:45.717Z,97751.13
2023-10-26T11:32:22.723Z,97748.41
2023-10-26T11:35:15.576Z,97750.56
2023-10-26T11:37:44.347Z,97745.72
2023-10-26T11:40:15.791Z,97744.91
2023-10-26T11:43:04.611Z,97747.34
2023-10-26T11:45:49.433Z,97747.34
2023-10-26T11:48:30.988Z,97738.16
2023-10-26T11:50:58.898Z,97731.13
2023-10-26T11:53:27.695Z,97725.19
2023-10-26T11:55:54.913Z,97725.75
2023-10-26T11:58:22.016Z,97718.72
2023-10-26T12:00:48.997Z,97718.72
2023-10-26T12:03:16.010Z,97721.13
2023-10-26T12:05:42.994Z,97729.53
2023-10-26T12:08:09.996Z,97725.75
2023-10-26T12:10:36.919Z,97719.78
2023-10-26T12:13:03.985Z,97716.00
2023-10-26T12:15:31.928Z,97723.47
2023-10-26T12:17:58.867Z,97715.94
2023-10-26T12:20:25.877Z,97722.41
2023-10-26T12:22:53.698Z,97737.03
2023-10-26T12:25:21.021Z,97741.94
2023-10-26T12:28:21.939Z,97735.94
2023-10-26T12:30:35.279Z,97732.75
2023-10-26T12:33:02.322Z,97732.19
2023-10-26T12:35:29.424Z,97729.53
2023-10-26T12:37:56.580Z,97732.47
2023-10-26T12:40:23.535Z,97742.50
2023-10-26T12:42:50.427Z,97737.09
2023-10-26T12:45:19.072Z,97740.31
2023-10-26T12:47:46.308Z,97736.53
2023-10-26T12:50:13.277Z,97728.44
2023-10-26T12:52:40.871Z,97723.00
2023-10-26T12:55:08.063Z,97727.59
2023-10-26T12:57:35.125Z,97728.97
2023-10-26T13:00:02.398Z,97724.63
2023-10-26T13:02:29.876Z,97714.59
2023-10-26T13:04:56.986Z,97708.34
2023-10-26T13:07:23.956Z,97699.69
2023-10-26T13:09:51.017Z,97676.72
2023-10-26T13:12:18.012Z,97669.72
2023-10-26T13:14:45.126Z,97673.41
2023-10-26T13:17:15.089Z,97676.44
2023-10-26T13:19:41.985Z,97675.34
2023-10-26T13:22:09.822Z,97669.97
2023-10-26T13:24:36.738Z,97664.09
2023-10-26T13:27:04.031Z,97666.31
2023-10-26T13:29:32.096Z,97661.41
2023-10-26T13:32:03.952Z,97668.97
2023-10-26T13:34:32.861Z,97668.97
2023-10-26T13:37:03.775Z,97669.50
2023-10-26T13:39:32.376Z,97668.72
2023-10-26T13:42:01.035Z,97660.88
2023-10-26T13:44:29.370Z,97646.06
2023-10-26T13:46:58.900Z,97657.09
2023-10-26T13:49:25.758Z,97652.69
2023-10-26T13:51:53.107Z,97651.69
2023-10-26T13:54:20.058Z,97643.56
2023-10-26T13:56:47.289Z,97638.44
2023-10-26T13:59:14.134Z,97642.78
2023-10-26T14:01:48.647Z,97631.72
2023-10-26T14:04:16.344Z,97622.78
2023-10-26T14:06:43.434Z,97631.75
2023-10-26T14:09:10.313Z,97641.47
2023-10-26T14:11:37.436Z,97634.72
2023-10-26T14:14:04.628Z,97631.22
2023-10-26T14:16:32.203Z,97620.91
2023-10-26T14:19:01.944Z,97615.47
2023-10-26T14:21:29.100Z,97618.13
2023-10-26T14:23:56.091Z,97619.25
2023-10-26T14:26:23.237Z,97614.97
2023-10-26T14:28:50.146Z,97616.56
2023-10-26T14:31:17.968Z,97621.44
2023-10-26T14:33:44.965Z,97616.84
2023-10-26T14:36:11.901Z,97615.56
2023-10-26T14:38:38.841Z,97623.06
2023-10-26T14:41:05.785Z,97629.00
2023-10-26T14:43:32.687Z,97621.47
2023-10-26T14:45:59.714Z,97620.88
2023-10-26T14:48:26.621Z,97617.09
2023-10-26T14:51:00.580Z,97614.41
2023-10-26T14:53:27.784Z,97612.81
2023-10-26T14:55:54.755Z,97611.75
2023-10-26T14:58:23.243Z,97613.91
2023-10-26T15:00:51.939Z,97608.53
2023-10-26T15:03:18.899Z,97607.47
2023-10-26T15:05:46.425Z,97609.88
2023-10-26T15:08:16.774Z,97608.53
2023-10-26T15:10:48.046Z,97606.09
2023-10-26T15:13:16.591Z,97605.31
2023-10-26T15:15:44.105Z,97614.53
2023-10-26T15:18:11.157Z,97609.13
2023-10-26T15:20:38.455Z,97606.41
2023-10-26T15:23:05.310Z,97601.56
2023-10-26T15:25:35.991Z,97606.97
2023-10-26T15:28:02.880Z,97594.53
2023-10-26T15:30:29.792Z,97594.03
2023-10-26T15:32:56.659Z,97591.84
2023-10-26T15:35:24.150Z,97594.00
2023-10-26T15:37:51.175Z,97574.56
2023-10-26T15:40:18.171Z,97573.50
2023-10-26T15:42:45.093Z,97574.06
2023-10-26T15:45:13.037Z,97578.13
2023-10-26T15:47:40.690Z,97589.69
2023-10-26T15:50:08.804Z,97580.81
2023-10-26T15:52:36.024Z,97585.13
2023-10-26T15:55:03.056Z,97578.38
2023-10-26T15:57:31.470Z,97579.19
2023-10-26T15:59:58.509Z,97578.91
2023-10-26T16:02:27.286Z,97584.28
2023-10-26T16:04:54.429Z,97587.28
2023-10-26T16:07:21.489Z,97584.03
2023-10-26T16:09:48.507Z,97585.38
2023-10-26T16:12:15.396Z,97588.06
2023-10-26T16:14:42.481Z,97586.44
2023-10-26T16:17:09.889Z,97586.44
2023-10-26T16:19:36.742Z,97584.03
2023-10-26T16:22:04.149Z,97579.97
2023-10-26T16:24:31.539Z,97586.44
2023-10-26T16:26:58.417Z,97583.19
2023-10-26T16:29:25.318Z,97590.22
2023-10-26T16:31:52.355Z,97587.50
2023-10-26T16:34:19.210Z,97583.75
2023-10-26T16:36:46.279Z,97582.66
2023-10-26T16:39:13.405Z,97592.91
2023-10-26T16:41:41.236Z,97591.81
2023-10-26T16:44:08.212Z,97597.75
2023-10-26T16:46:35.350Z,97600.19
2023-10-26T16:49:02.586Z,97593.97
2023-10-26T16:51:36.124Z,97585.34
2023-10-26T16:54:03.104Z,97583.75
2023-10-26T16:56:30.771Z,97583.75
2023-10-26T16:58:57.629Z,97579.41
2023-10-26T17:01:24.546Z,97577.25
2023-10-26T17:03:51.722Z,97578.34
2023-10-26T17:06:19.232Z,97570.78
2023-10-26T17:08:46.285Z,97576.19
2023-10-26T17:11:13.596Z,97579.41
2023-10-26T17:13:41.502Z,97569.72
2023-10-26T17:16:09.168Z,97566.47
2023-10-26T17:18:36.547Z,97564.84
2023-10-26T17:21:03.728Z,97562.94
2023-10-26T17:23:30.973Z,97553.00
2023-10-26T17:25:58.169Z,97564.59
2023-10-26T17:28:25.161Z,97558.94
2023-10-26T17:30:52.077Z,97551.38
2023-10-26T17:33:19.227Z,97547.59
2023-10-26T17:35:51.430Z,97551.94
2023-10-26T17:38:18.534Z,97546.53
2023-10-26T17:40:46.824Z,97545.97
2023-10-26T17:43:15.157Z,97558.09
2023-10-26T17:45:42.620Z,97554.31
2023-10-26T17:48:11.116Z,97558.88
2023-10-26T17:50:41.740Z,97551.88
2023-10-26T17:53:08.916Z,97563.22
2023-10-26T17:55:35.923Z,97561.56
2023-10-26T17:58:03.046Z,97572.34
2023-10-26T18:00:30.075Z,97568.03
2023-10-26T18:02:57.511Z,97561.56
2023-10-26T18:05:24.655Z,97557.78
2023-10-26T18:07:55.785Z,97558.59
2023-10-26T18:10:22.841Z,97556.72
2023-10-26T18:12:49.837Z,97555.63
2023-10-26T18:15:17.174Z,97552.41
2023-10-26T18:17:44.460Z,97552.41
2023-10-26T18:20:12.107Z,97545.91
2023-10-26T18:22:39.151Z,97550.22
2023-10-26T18:25:06.771Z,97547.50
2023-10-26T18:27:33.701Z,97549.66
2023-10-26T18:30:00.706Z,97556.94
2023-10-26T18:32:27.706Z,97553.97
2023-10-26T18:34:54.560Z,97559.63
2023-10-26T18:37:22.435Z,97557.75
2023-10-26T18:39:49.945Z,97553.44
2023-10-26T18:42:17.120Z,97560.97
2023-10-26T18:44:43.998Z,97563.13
2023-10-26T18:47:12.047Z,97559.63
2023-10-26T18:49:39.491Z,97556.38
2023-10-26T18:52:07.238Z,97552.31
2023-10-26T18:54:34.991Z,97554.50
2023-10-26T18:57:04.755Z,97557.22
2023-10-26T18:59:31.812Z,97554.50
2023-10-26T19:02:00.248Z,97550.47
2023-10-26T19:04:27.609Z,97542.13
2023-10-26T19:06:55.328Z,97549.66
2023-10-26T19:09:22.867Z,97542.13
2023-10-26T19:11:50.286Z,97549.91
2023-10-26T19:14:17.409Z,97550.22
2023-10-26T19:16:44.456Z,97549.94
2023-10-26T19:19:11.382Z,97557.47
2023-10-26T19:21:38.280Z,97556.66
2023-10-26T19:24:09.207Z,97548.06
2023-10-26T19:26:36.191Z,97545.06
2023-10-26T19:29:10.970Z,97545.34
2023-10-26T19:31:37.929Z,97543.72
2023-10-26T19:34:06.228Z,97540.50
2023-10-26T19:36:33.118Z,97544.00
2023-10-26T19:39:04.122Z,97546.41
2023-10-26T19:41:31.463Z,97537.53
2023-10-26T19:43:59.903Z,97542.13
2023-10-26T19:46:27.102Z,97549.66
2023-10-26T19:48:54.393Z,97543.22
2023-10-26T19:51:21.323Z,97545.13
2023-10-26T19:53:49.120Z,97551.34
2023-10-26T19:56:16.165Z,97553.78
2023-10-26T19:58:43.071Z,97549.22
2023-10-26T20:01:16.545Z,97554.88
2023-10-26T20:03:44.020Z,97549.47
2023-10-26T20:06:11.003Z,97557.59
2023-10-26T20:08:37.907Z,97555.69
2023-10-26T20:11:05.958Z,97555.16
2023-10-26T20:13:33.132Z,97551.91
2023-10-26T20:16:00.459Z,97559.19
2023-10-26T20:18:28.648Z,97559.19
2023-10-26T20:20:55.554Z,97564.88
2023-10-26T20:23:22.490Z,97568.63
2023-10-26T20:25:50.588Z,97556.75
2023-10-26T20:28:17.663Z,97557.03
2023-10-26T20:30:44.866Z,97558.38
2023-10-26T20:33:11.810Z,97570.75
2023-10-26T20:35:38.690Z,97564.03
2023-10-26T20:38:05.694Z,97565.66
2023-10-26T20:40:33.237Z,97562.69
2023-10-26T20:43:02.542Z,97561.06
2023-10-26T20:45:29.736Z,97555.16
2023-10-26T20:47:57.428Z,97550.28
2023-10-26T20:50:24.664Z,97548.69
2023-10-26T20:52:52.369Z,97542.75
2023-10-26T20:55:19.233Z,97538.97
2023-10-26T20:57:46.768Z,97538.44
2023-10-26T21:00:14.299Z,97541.09
2023-10-26T21:02:43.195Z,97547.31
2023-10-26T21:05:10.819Z,97538.97
2023-10-26T21:07:38.744Z,97539.75
2023-10-26T21:10:06.471Z,97540.31
2023-10-26T21:12:34.082Z,97541.66
2023-10-26T21:15:00.962Z,97541.38
2023-10-26T21:17:30.503Z,97534.38
2023-10-26T21:19:57.638Z,97535.19
2023-10-26T21:22:24.541Z,97530.06
2023-10-26T21:24:51.407Z,97526.56
2023-10-26T21:27:19.474Z,97526.56
2023-10-26T21:29:46.381Z,97517.94
2023-10-26T21:32:13.345Z,97523.84
2023-10-26T21:34:40.369Z,97520.88
2023-10-26T21:37:07.350Z,97520.06
2023-10-26T21:39:34.204Z,97526.00
2023-10-26T21:42:02.013Z,97517.91
2023-10-26T21:44:28.834Z,97518.47
2023-10-26T21:46:55.842Z,97515.50
2023-10-26T21:49:22.823Z,97514.69
2023-10-26T21:51:49.741Z,97508.75
2023-10-26T21:54:16.546Z,97508.75
2023-10-26T21:56:43.947Z,97508.75
2023-10-26T21:59:11.108Z,97508.22
2023-10-26T22:01:38.327Z,97503.34
2023-10-26T22:04:21.417Z,97503.06
2023-10-26T22:06:49.204Z,97500.91
2023-10-26T22:09:16.528Z,97500.09
2023-10-26T22:11:43.384Z,97492.28
2023-10-26T22:14:10.255Z,97494.69
2023-10-26T22:16:37.213Z,97489.84
2023-10-26T22:19:04.142Z,97493.06
2023-10-26T22:21:30.976Z,97482.56
2023-10-26T22:23:58.493Z,97482.56
2023-10-26T22:26:25.338Z,97476.34
2023-10-26T22:28:53.101Z,97479.28
2023-10-26T22:31:20.238Z,97479.53
2023-10-26T22:33:48.122Z,97477.94
2023-10-26T22:36:15.112Z,97470.94
2023-10-26T22:38:41.980Z,97473.09
2023-10-26T22:41:11.878Z,97469.84
2023-10-26T22:43:38.995Z,97459.34
2023-10-26T22:46:06.191Z,97466.59
2023-10-26T22:48:33.101Z,97467.13
2023-10-26T22:51:00.885Z,97463.88
2023-10-26T22:53:27.939Z,97463.84
2023-10-26T22:55:54.861Z,97459.00
2023-10-26T22:58:22.722Z,97458.47
2023-10-26T23:00:49.697Z,97457.13
2023-10-26T23:03:17.441Z,97451.50
2023-10-26T23:05:44.527Z,97451.50
2023-10-26T23:08:12.453Z,97459.81
2023-10-26T23:10:39.390Z,97451.16
2023-10-26T23:13:06.323Z,97448.72
2023-10-26T23:15:33.476Z,97455.13
2023-10-26T23:18:00.671Z,97447.66
2023-10-26T23:20:27.775Z,97436.66
2023-10-26T23:22:54.692Z,97424.81
2023-10-26T23:25:21.746Z,97423.19
2023-10-26T23:27:50.616Z,97425.34
2023-10-26T23:30:17.492Z,97407.34
2023-10-26T23:32:44.468Z,97413.81
2023-10-26T23:35:11.372Z,97409.75
2023-10-26T23:37:38.273Z,97407.84
2023-10-26T23:40:05.797Z,97406.25
2023-10-26T23:42:32.795Z,97408.91
2023-10-26T23:44:59.676Z,97408.63
2023-10-26T23:47:26.681Z,97412.38
2023-10-26T23:49:54.730Z,97401.84
2023-10-26T23:52:21.656Z,97406.69
2023-10-26T23:54:48.618Z,97408.06
2023-10-26T23:57:15.792Z,97402.63
2023-10-26T23:59:42.716Z,97402.38
